Contargo III & Xii — PD5101 — position and weather

sailwx.info

Track history (hours):
 
Tides and Currents Weather Stations Pressure Air Temp Water Temp Dewpoint Dewpoint Depression Visibility Wind Speed Wind Dir Waves Ship Positions

Contargo III & Xii

Last reported at 2014-Oct-21 00:26 UTC. Time now 2014-Oct-21 07:13 UTC.
Position N 48°41' E 007°55'.

Length 182 m; draft 1 m.

Type: Ship. MMSI: 244670090.

Date/timePositionNaut miles runAvg speedWind from/ knotsBaromVisibWave heightAir tempDewpointWater temp
2014-Oct-21 00:26N 48°41' E 007°55'5 5.2
2014-Oct-20 23:33N 48°45' E 007°58'6 5.6
2014-Oct-20 22:33N 48°48' E 008°05'3 3.4
2014-Oct-20 21:33N 48°51' E 008°07'3 3.2
2014-Oct-20 20:33N 48°54' E 008°09'3 3.4
2014-Oct-20 19:33N 48°57' E 008°12'3 3.2
2014-Oct-20 18:33N 48°59' E 008°16'3 3.4
2014-Oct-20 17:33N 49°02' E 008°18'4 3.9
2014-Oct-20 16:33N 49°05' E 008°21'4 4.2
2014-Oct-20 15:33N 49°09' E 008°22'4 4.2
2014-Oct-20 14:33N 49°14' E 008°23'4 4.4
2014-Oct-20 13:33N 49°17' E 008°28'3 2.8
2014-Oct-20 12:33N 49°20' E 008°27'110 3.1
2014-Oct-19 01:26N 50°54' E 006°59'9 4.7
2014-Oct-18 23:29N 51°03' E 006°56'3 3.7
2014-Oct-18 22:33N 51°06' E 006°53'4 3.9
2014-Oct-18 21:33N 51°09' E 006°50'3 3.2
2014-Oct-18 20:33N 51°11' E 006°45'2 2.3
2014-Oct-18 19:33N 51°13' E 006°46'4 4.3
2014-Oct-18 18:33N 51°17' E 006°43'4 4.2
2014-Oct-18 17:33N 51°21' E 006°40'28 4.0
2014-Oct-18 10:25N 51°46' E 006°20'14 4.1
2014-Oct-18 07:03N 51°53' E 006°00'7 4.9
2014-Oct-18 05:33N 51°52' E 005°48'7 6.6
2014-Oct-18 04:33N 51°54' E 005°38'7 6.6
2014-Oct-18 03:34N 51°53' E 005°27'7 6.5
2014-Oct-18 02:34N 51°48' E 005°21'6 6.3
2014-Oct-18 01:34N 51°49' E 005°11'7 7.3
2014-Oct-18 00:33N 51°49' E 004°59'9 8.6
2014-Oct-17 23:33N 51°49' E 004°45'6 6.0
2014-Oct-17 22:34N 51°45' E 004°38'2 0.4
2014-Oct-17 16:33N 51°43' E 004°37'5 5.3
2014-Oct-17 15:34N 51°48' E 004°36'8 8.2
2014-Oct-17 14:34N 51°51' E 004°23'6 6.4
2014-Oct-17 13:34N 51°53' E 004°14'7 6.5
2014-Oct-17 12:33N 51°56' E 004°05'1 0.7
2014-Oct-17 11:34N 51°57' E 004°04'0 0.0
2014-Oct-17 10:34N 51°57' E 004°04'0 0.0
2014-Oct-17 09:34N 51°57' E 004°04'0 0.0
2014-Oct-17 08:34N 51°57' E 004°04'3 3.0
2014-Oct-17 07:33N 51°56' E 004°09'0 0.0
2014-Oct-17 06:33N 51°56' E 004°09'0 0.0
2014-Oct-17 05:34N 51°56' E 004°09'0 0.1
2014-Oct-17 04:34N 51°56' E 004°09'0 0.2
2014-Oct-17 03:33N 51°56' E 004°09'4 4.2
2014-Oct-17 02:34N 51°57' E 004°02'0 0.0
2014-Oct-17 01:33N 51°57' E 004°02'0 0.3
2014-Oct-17 00:33N 51°56' E 004°02'0 0.0
2014-Oct-16 23:34N 51°56' E 004°02'1 0.9
2014-Oct-16 22:34N 51°56' E 004°03'1 1.4
2014-Oct-16 21:33N 51°57' E 004°02'0 0.2
2014-Oct-16 20:33N 51°57' E 004°02'1 1.2
2014-Oct-16 19:33N 51°59' E 004°02'0 0.1
2014-Oct-16 18:33N 51°59' E 004°02'4 4.5
2014-Oct-16 17:33N 51°56' E 004°08'5 5.0
2014-Oct-16 16:33N 51°53' E 004°14'5 4.7
2014-Oct-16 15:33N 51°54' E 004°22'2 2.0
2014-Oct-16 14:33N 51°53' E 004°25'1 0.4
2014-Oct-16 12:33N 51°54' E 004°25'1 0.0
2014-Oct-15 19:05N 51°54' E 004°26'3 5.5
2014-Oct-15 18:33N 51°55' E 004°31'7 6.9
2014-Oct-15 17:34N 51°51' E 004°40'8 8.4
2014-Oct-15 16:33N 51°43' E 004°37'2 1.8
2014-Oct-15 15:33N 51°41' E 004°36'0 0.0
2014-Oct-15 14:33N 51°41' E 004°36'0 0.0
2014-Oct-15 13:27N 51°41' E 004°36'1 0.7
2014-Oct-15 12:32N 51°42' E 004°35'5 5.3
2014-Oct-15 11:32N 51°42' E 004°27'2 2.0
2014-Oct-15 10:27N 51°41' E 004°24'5 5.6
2014-Oct-15 09:29N 51°38' E 004°16'7 7.1
2014-Oct-15 08:32N 51°32' E 004°14'5 5.3
2014-Oct-15 07:33N 51°27' E 004°14'7 6.9
2014-Oct-15 06:29N 51°20' E 004°18'1 1.1
2014-Oct-15 05:33N 51°20' E 004°20'0 0.0
2014-Oct-15 04:33N 51°20' E 004°20'0 0.0
2014-Oct-15 03:33N 51°20' E 004°20'0 0.0
2014-Oct-15 02:33N 51°20' E 004°20'0 0.0
2014-Oct-15 01:33N 51°20' E 004°20'0 0.0
2014-Oct-15 00:33N 51°20' E 004°20'0 0.0
2014-Oct-14 23:27N 51°20' E 004°20'3 3.4
2014-Oct-14 22:33N 51°17' E 004°20'1 0.9
2014-Oct-14 21:34N 51°17' E 004°19'1 1.1
2014-Oct-14 20:34N 51°18' E 004°18'0 0.0
2014-Oct-14 19:33N 51°18' E 004°18'1 1.0
2014-Oct-14 18:27N 51°18' E 004°16'0 0.1
2014-Oct-14 17:33N 51°18' E 004°16'1 1.2
2014-Oct-14 16:33N 51°19' E 004°17'0 0.0
2014-Oct-14 15:34N 51°19' E 004°17'0 0.0
2014-Oct-14 14:33N 51°19' E 004°17'2 1.7
2014-Oct-14 13:33N 51°20' E 004°16'0 0.0
2014-Oct-14 12:33N 51°20' E 004°16'0 0.0
2014-Oct-14 11:33N 51°20' E 004°16'0 0.0
2014-Oct-14 10:33N 51°20' E 004°16'0 0.4
2014-Oct-14 09:33N 51°21' E 004°16'0 0.0
2014-Oct-14 08:32N 51°21' E 004°16'0 0.3
2014-Oct-14 07:33N 51°21' E 004°16'3 3.5
2014-Oct-14 06:33N 51°18' E 004°16'0 0.3
2014-Oct-14 05:32N 51°17' E 004°15'0 0.0
2014-Oct-14 04:33N 51°17' E 004°15'0 0.0
2014-Oct-14 03:30N 51°17' E 004°15'0 0.0
2014-Oct-14 02:29N 51°17' E 004°15'0 0.0
2014-Oct-14 01:16N 51°17' E 004°15'0 0.0
2014-Oct-14 00:30N 51°17' E 004°15'0 0.0
2014-Oct-13 23:24N 51°17' E 004°15'0 0.0
2014-Oct-13 22:31N 51°17' E 004°15'3 3.1
2014-Oct-13 21:33N 51°17' E 004°20'0 0.3
2014-Oct-13 20:34N 51°17' E 004°20'0 0.0
2014-Oct-13 19:33N 51°17' E 004°20'0 0.2
2014-Oct-13 18:33N 51°17' E 004°20'3 2.9
2014-Oct-13 17:33N 51°20' E 004°20'0 0.0
2014-Oct-13 16:26N 51°20' E 004°20'1 1.3
2014-Oct-13 15:33N 51°19' E 004°19'0 0.0
2014-Oct-13 14:32N 51°19' E 004°19'0 0.0
2014-Oct-13 13:30N 51°19' E 004°19'0 0.0
2014-Oct-13 12:33N 51°19' E 004°19'0 0.0
2014-Oct-13 11:33N 51°19' E 004°19'0 0.0
2014-Oct-13 10:33N 51°19' E 004°19'0 0.0
2014-Oct-13 09:33N 51°19' E 004°19'1 0.7
2014-Oct-13 08:33N 51°18' E 004°20'2 1.8
2014-Oct-13 07:33N 51°16' E 004°21'6 5.5
2014-Oct-13 06:26N 51°22' E 004°18'5 5.8
2014-Oct-13 05:33N 51°27' E 004°14'7 6.6
2014-Oct-13 04:33N 51°34' E 004°14'6 6.5
2014-Oct-13 03:33N 51°39' E 004°18'6 6.0
2014-Oct-13 02:33N 51°42' E 004°27'9 8.7
2014-Oct-13 01:33N 51°44' E 004°41'8 7.9
2014-Oct-13 00:33N 51°48' E 004°51'9 8.7
2014-Oct-12 23:33N 51°50' E 005°05'9 9.4
2014-Oct-12 22:33N 51°49' E 005°20'9 8.8
2014-Oct-12 21:33N 51°54' E 005°32'1010.0
2014-Oct-12 20:33N 51°53' E 005°48'8 7.6
2014-Oct-12 19:32N 51°53' E 006°01'1010.2
2014-Oct-12 18:31N 51°49' E 006°16'31 7.7
2014-Oct-12 14:26N 51°23' E 006°44'6 6.4
2014-Oct-12 13:33N 51°17' E 006°43'7 6.7
2014-Oct-12 12:33N 51°11' E 006°45'7 6.5
2014-Oct-12 11:33N 51°07' E 006°53'119 7.2
2014-Oct-11 19:11N 49°26' E 008°30'6 9.3
2014-Oct-11 18:32N 49°20' E 008°28'7 7.6
2014-Oct-11 17:33N 49°13' E 008°23'10 9.7
2014-Oct-11 16:33N 49°04' E 008°19'10 9.7
2014-Oct-11 15:33N 48°56' E 008°11'7 6.5
2014-Oct-11 14:32N 48°50' E 008°07'7 6.3
2014-Oct-11 13:23N 48°45' E 007°58'5 5.8
2014-Oct-11 12:33N 48°41' E 007°55'  
Track history (hours):
 
Tides and Currents Weather Stations Pressure Air Temp Water Temp Dewpoint Dewpoint Depression Visibility Wind Speed Wind Dir Waves Ship Positions

Contargo III & Xii

Last reported at 2014-Oct-21 00:26 UTC. Time now 2014-Oct-21 07:13 UTC.
Position N 48°41' E 007°55'.

Length 182 m; draft 1 m.

Type: Ship. MMSI: 244670090.

Date/timePositionNaut miles runAvg speedWind from/ knotsBaromVisibWave heightAir tempDewpointWater temp
2014-Oct-21 00:26N 48°41' E 007°55'5 5.2
2014-Oct-20 23:33N 48°45' E 007°58'6 5.6
2014-Oct-20 22:33N 48°48' E 008°05'3 3.4
2014-Oct-20 21:33N 48°51' E 008°07'3 3.2
2014-Oct-20 20:33N 48°54' E 008°09'3 3.4
2014-Oct-20 19:33N 48°57' E 008°12'3 3.2
2014-Oct-20 18:33N 48°59' E 008°16'3 3.4
2014-Oct-20 17:33N 49°02' E 008°18'4 3.9
2014-Oct-20 16:33N 49°05' E 008°21'4 4.2
2014-Oct-20 15:33N 49°09' E 008°22'4 4.2
2014-Oct-20 14:33N 49°14' E 008°23'4 4.4
2014-Oct-20 13:33N 49°17' E 008°28'3 2.8
2014-Oct-20 12:33N 49°20' E 008°27'110 3.1
2014-Oct-19 01:26N 50°54' E 006°59'9 4.7
2014-Oct-18 23:29N 51°03' E 006°56'3 3.7
2014-Oct-18 22:33N 51°06' E 006°53'4 3.9
2014-Oct-18 21:33N 51°09' E 006°50'3 3.2
2014-Oct-18 20:33N 51°11' E 006°45'2 2.3
2014-Oct-18 19:33N 51°13' E 006°46'4 4.3
2014-Oct-18 18:33N 51°17' E 006°43'4 4.2
2014-Oct-18 17:33N 51°21' E 006°40'28 4.0
2014-Oct-18 10:25N 51°46' E 006°20'14 4.1
2014-Oct-18 07:03N 51°53' E 006°00'7 4.9
2014-Oct-18 05:33N 51°52' E 005°48'7 6.6
2014-Oct-18 04:33N 51°54' E 005°38'7 6.6
2014-Oct-18 03:34N 51°53' E 005°27'7 6.5
2014-Oct-18 02:34N 51°48' E 005°21'6 6.3
2014-Oct-18 01:34N 51°49' E 005°11'7 7.3
2014-Oct-18 00:33N 51°49' E 004°59'9 8.6
2014-Oct-17 23:33N 51°49' E 004°45'6 6.0
2014-Oct-17 22:34N 51°45' E 004°38'2 0.4
2014-Oct-17 16:33N 51°43' E 004°37'5 5.3
2014-Oct-17 15:34N 51°48' E 004°36'8 8.2
2014-Oct-17 14:34N 51°51' E 004°23'6 6.4
2014-Oct-17 13:34N 51°53' E 004°14'7 6.5
2014-Oct-17 12:33N 51°56' E 004°05'1 0.7
2014-Oct-17 11:34N 51°57' E 004°04'0 0.0
2014-Oct-17 10:34N 51°57' E 004°04'0 0.0
2014-Oct-17 09:34N 51°57' E 004°04'0 0.0
2014-Oct-17 08:34N 51°57' E 004°04'3 3.0
2014-Oct-17 07:33N 51°56' E 004°09'0 0.0
2014-Oct-17 06:33N 51°56' E 004°09'0 0.0
2014-Oct-17 05:34N 51°56' E 004°09'0 0.1
2014-Oct-17 04:34N 51°56' E 004°09'0 0.2
2014-Oct-17 03:33N 51°56' E 004°09'4 4.2
2014-Oct-17 02:34N 51°57' E 004°02'0 0.0
2014-Oct-17 01:33N 51°57' E 004°02'0 0.3
2014-Oct-17 00:33N 51°56' E 004°02'0 0.0
2014-Oct-16 23:34N 51°56' E 004°02'1 0.9
2014-Oct-16 22:34N 51°56' E 004°03'1 1.4
2014-Oct-16 21:33N 51°57' E 004°02'0 0.2
2014-Oct-16 20:33N 51°57' E 004°02'1 1.2
2014-Oct-16 19:33N 51°59' E 004°02'0 0.1
2014-Oct-16 18:33N 51°59' E 004°02'4 4.5
2014-Oct-16 17:33N 51°56' E 004°08'5 5.0
2014-Oct-16 16:33N 51°53' E 004°14'5 4.7
2014-Oct-16 15:33N 51°54' E 004°22'2 2.0
2014-Oct-16 14:33N 51°53' E 004°25'1 0.4
2014-Oct-16 12:33N 51°54' E 004°25'1 0.0
2014-Oct-15 19:05N 51°54' E 004°26'3 5.5
2014-Oct-15 18:33N 51°55' E 004°31'7 6.9
2014-Oct-15 17:34N 51°51' E 004°40'8 8.4
2014-Oct-15 16:33N 51°43' E 004°37'2 1.8
2014-Oct-15 15:33N 51°41' E 004°36'0 0.0
2014-Oct-15 14:33N 51°41' E 004°36'0 0.0
2014-Oct-15 13:27N 51°41' E 004°36'1 0.7
2014-Oct-15 12:32N 51°42' E 004°35'5 5.3
2014-Oct-15 11:32N 51°42' E 004°27'2 2.0
2014-Oct-15 10:27N 51°41' E 004°24'5 5.6
2014-Oct-15 09:29N 51°38' E 004°16'7 7.1
2014-Oct-15 08:32N 51°32' E 004°14'5 5.3
2014-Oct-15 07:33N 51°27' E 004°14'7 6.9
2014-Oct-15 06:29N 51°20' E 004°18'1 1.1
2014-Oct-15 05:33N 51°20' E 004°20'0 0.0
2014-Oct-15 04:33N 51°20' E 004°20'0 0.0
2014-Oct-15 03:33N 51°20' E 004°20'0 0.0
2014-Oct-15 02:33N 51°20' E 004°20'0 0.0
2014-Oct-15 01:33N 51°20' E 004°20'0 0.0
2014-Oct-15 00:33N 51°20' E 004°20'0 0.0
2014-Oct-14 23:27N 51°20' E 004°20'3 3.4
2014-Oct-14 22:33N 51°17' E 004°20'1 0.9
2014-Oct-14 21:34N 51°17' E 004°19'1 1.1
2014-Oct-14 20:34N 51°18' E 004°18'0 0.0
2014-Oct-14 19:33N 51°18' E 004°18'1 1.0
2014-Oct-14 18:27N 51°18' E 004°16'0 0.1
2014-Oct-14 17:33N 51°18' E 004°16'1 1.2
2014-Oct-14 16:33N 51°19' E 004°17'0 0.0
2014-Oct-14 15:34N 51°19' E 004°17'0 0.0
2014-Oct-14 14:33N 51°19' E 004°17'2 1.7
2014-Oct-14 13:33N 51°20' E 004°16'0 0.0
2014-Oct-14 12:33N 51°20' E 004°16'0 0.0
2014-Oct-14 11:33N 51°20' E 004°16'0 0.0
2014-Oct-14 10:33N 51°20' E 004°16'0 0.4
2014-Oct-14 09:33N 51°21' E 004°16'0 0.0
2014-Oct-14 08:32N 51°21' E 004°16'0 0.3
2014-Oct-14 07:33N 51°21' E 004°16'3 3.5
2014-Oct-14 06:33N 51°18' E 004°16'0 0.3
2014-Oct-14 05:32N 51°17' E 004°15'0 0.0
2014-Oct-14 04:33N 51°17' E 004°15'0 0.0
2014-Oct-14 03:30N 51°17' E 004°15'0 0.0
2014-Oct-14 02:29N 51°17' E 004°15'0 0.0
2014-Oct-14 01:16N 51°17' E 004°15'0 0.0
2014-Oct-14 00:30N 51°17' E 004°15'0 0.0
2014-Oct-13 23:24N 51°17' E 004°15'0 0.0
2014-Oct-13 22:31N 51°17' E 004°15'3 3.1
2014-Oct-13 21:33N 51°17' E 004°20'0 0.3
2014-Oct-13 20:34N 51°17' E 004°20'0 0.0
2014-Oct-13 19:33N 51°17' E 004°20'0 0.2
2014-Oct-13 18:33N 51°17' E 004°20'3 2.9
2014-Oct-13 17:33N 51°20' E 004°20'0 0.0
2014-Oct-13 16:26N 51°20' E 004°20'1 1.3
2014-Oct-13 15:33N 51°19' E 004°19'0 0.0
2014-Oct-13 14:32N 51°19' E 004°19'0 0.0
2014-Oct-13 13:30N 51°19' E 004°19'0 0.0
2014-Oct-13 12:33N 51°19' E 004°19'0 0.0
2014-Oct-13 11:33N 51°19' E 004°19'0 0.0
2014-Oct-13 10:33N 51°19' E 004°19'0 0.0
2014-Oct-13 09:33N 51°19' E 004°19'1 0.7
2014-Oct-13 08:33N 51°18' E 004°20'2 1.8
2014-Oct-13 07:33N 51°16' E 004°21'6 5.5
2014-Oct-13 06:26N 51°22' E 004°18'5 5.8
2014-Oct-13 05:33N 51°27' E 004°14'7 6.6
2014-Oct-13 04:33N 51°34' E 004°14'6 6.5
2014-Oct-13 03:33N 51°39' E 004°18'6 6.0
2014-Oct-13 02:33N 51°42' E 004°27'9 8.7
2014-Oct-13 01:33N 51°44' E 004°41'8 7.9
2014-Oct-13 00:33N 51°48' E 004°51'9 8.7
2014-Oct-12 23:33N 51°50' E 005°05'9 9.4
2014-Oct-12 22:33N 51°49' E 005°20'9 8.8
2014-Oct-12 21:33N 51°54' E 005°32'1010.0
2014-Oct-12 20:33N 51°53' E 005°48'8 7.6
2014-Oct-12 19:32N 51°53' E 006°01'1010.2
2014-Oct-12 18:31N 51°49' E 006°16'31 7.7
2014-Oct-12 14:26N 51°23' E 006°44'6 6.4
2014-Oct-12 13:33N 51°17' E 006°43'7 6.7
2014-Oct-12 12:33N 51°11' E 006°45'7 6.5
2014-Oct-12 11:33N 51°07' E 006°53'119 7.2
2014-Oct-11 19:11N 49°26' E 008°30'6 9.3
2014-Oct-11 18:32N 49°20' E 008°28'7 7.6
2014-Oct-11 17:33N 49°13' E 008°23'10 9.7
2014-Oct-11 16:33N 49°04' E 008°19'10 9.7
2014-Oct-11 15:33N 48°56' E 008°11'7 6.5
2014-Oct-11 14:32N 48°50' E 008°07'7 6.3
2014-Oct-11 13:23N 48°45' E 007°58'5 5.8
2014-Oct-11 12:33N 48°41' E 007°55'  

Dump ship's entire track history